createdAt,value
2022-09-05T00:00:04.286Z,100.00
2022-09-05T00:02:51.557Z,100.00
2022-09-05T00:05:32.884Z,100.00
2022-09-05T00:08:24.908Z,100.00
2022-09-05T00:11:42.116Z,100.00
2022-09-05T00:14:12.744Z,100.00
2022-09-05T00:17:07.553Z,100.00
2022-09-05T00:24:19.806Z,100.00
2022-09-05T00:24:36.936Z,100.00
2022-09-05T00:26:11.315Z,100.00
2022-09-05T00:28:48.799Z,100.00
2022-09-05T00:31:54.851Z,100.00
2022-09-05T00:34:24.021Z,100.00
2022-09-05T00:36:55.825Z,100.00
2022-09-05T00:39:31.565Z,100.00
2022-09-05T00:42:15.231Z,100.00
2022-09-05T00:44:59.671Z,100.00
2022-09-05T00:47:59.412Z,100.00
2022-09-05T00:50:43.407Z,100.00
2022-09-05T00:53:24.048Z,100.00
2022-09-05T00:55:58.851Z,100.00
2022-09-05T00:58:55.551Z,100.00
2022-09-05T01:01:53.432Z,100.00
2022-09-05T01:04:43.871Z,100.00
2022-09-05T01:07:46.853Z,100.00
2022-09-05T01:10:27.570Z,100.00
2022-09-05T01:13:18.519Z,100.00
2022-09-05T01:16:25.247Z,100.00
2022-09-05T01:19:21.371Z,100.00
2022-09-05T01:22:19.252Z,100.00
2022-09-05T01:25:09.419Z,100.00
2022-09-05T01:28:32.981Z,100.00
2022-09-05T01:31:01.275Z,100.00
2022-09-05T01:34:18.214Z,100.00
2022-09-05T01:37:32.857Z,100.00
2022-09-05T01:40:31.424Z,100.00
2022-09-05T01:43:30.646Z,100.00
2022-09-05T01:46:23.133Z,100.00
2022-09-05T01:49:30.805Z,100.00
2022-09-05T01:52:09.850Z,100.00
2022-09-05T01:54:47.871Z,100.00
2022-09-05T01:57:41.184Z,100.00
2022-09-05T02:00:31.743Z,100.00
2022-09-05T02:03:03.595Z,100.00
2022-09-05T02:05:49.655Z,100.00
2022-09-05T02:08:52.455Z,100.00
2022-09-05T02:11:42.277Z,100.00
2022-09-05T02:14:34.251Z,100.00
2022-09-05T02:17:50.851Z,100.00
2022-09-05T02:20:44.184Z,100.00
2022-09-05T02:23:31.035Z,100.00
2022-09-05T02:26:22.521Z,100.00
2022-09-05T02:28:55.566Z,100.00
2022-09-05T02:31:50.643Z,100.00
2022-09-05T02:34:25.512Z,100.00
2022-09-05T02:38:00.483Z,100.00
2022-09-05T02:45:03.838Z,100.00
2022-09-05T02:45:16.999Z,100.00
2022-09-05T02:47:32.746Z,100.00
2022-09-05T02:53:15.945Z,100.00
2022-09-05T02:57:25.778Z,100.00
2022-09-05T02:57:44.957Z,100.00
2022-09-05T02:59:43.339Z,100.00
2022-09-05T03:02:31.273Z,100.00
2022-09-05T03:05:40.272Z,100.00
2022-09-05T03:08:31.251Z,100.00
2022-09-05T03:11:21.476Z,100.00
2022-09-05T03:13:54.235Z,100.00
2022-09-05T03:16:26.565Z,100.00
2022-09-05T03:19:26.405Z,100.00
2022-09-05T03:22:26.964Z,100.00
2022-09-05T03:25:02.125Z,100.00
2022-09-05T03:28:23.994Z,100.00
2022-09-05T03:31:15.963Z,100.00
2022-09-05T03:34:19.471Z,100.00
2022-09-05T03:37:15.542Z,100.00
2022-09-05T03:40:23.524Z,100.00
2022-09-05T03:43:23.418Z,100.00
2022-09-05T03:46:18.679Z,100.00
2022-09-05T04:11:23.956Z,100.00
2022-09-05T04:21:22.653Z,100.00
2022-09-05T04:24:15.082Z,100.00
2022-09-05T04:31:14.952Z,100.00
2022-09-05T04:34:21.125Z,100.00
2022-09-05T04:37:06.008Z,100.00
2022-09-05T04:39:36.784Z,100.00
2022-09-05T04:42:23.986Z,100.00
2022-09-05T04:45:08.212Z,100.00
2022-09-05T04:47:44.513Z,100.00
2022-09-05T04:50:23.483Z,100.00
2022-09-05T04:53:05.009Z,100.00
2022-09-05T04:55:58.797Z,100.00
2022-09-05T05:01:14.487Z,100.00
2022-09-05T05:06:05.846Z,100.00
2022-09-05T05:06:17.106Z,100.00
2022-09-05T05:07:49.316Z,100.00
2022-09-05T05:14:17.553Z,100.00
2022-09-05T05:17:57.650Z,100.00
2022-09-05T05:18:06.877Z,100.00
2022-09-05T05:19:35.342Z,100.00
2022-09-05T05:22:06.937Z,100.00
2022-09-05T05:24:42.733Z,100.00
2022-09-05T05:27:24.615Z,100.00
2022-09-05T05:29:56.861Z,100.00
2022-09-05T05:32:45.842Z,100.00
2022-09-05T05:35:23.215Z,100.00
2022-09-05T05:38:15.541Z,100.00
2022-09-05T05:40:53.952Z,100.00
2022-09-05T05:43:28.418Z,100.00
2022-09-05T05:46:00.857Z,100.00
2022-09-05T05:48:40.647Z,100.00
2022-09-05T05:51:50.322Z,100.00
2022-09-05T05:54:36.444Z,100.00
2022-09-05T05:57:23.811Z,100.00
2022-09-05T05:59:59.107Z,100.00
2022-09-05T06:03:26.373Z,100.00
2022-09-05T06:06:16.166Z,100.00
2022-09-05T06:14:48.278Z,100.00
2022-09-05T06:14:57.015Z,100.00
2022-09-05T06:16:22.657Z,100.00
2022-09-05T06:19:31.860Z,100.00
2022-09-05T06:22:47.068Z,100.00
2022-09-05T06:25:24.861Z,100.00
2022-09-05T06:28:18.934Z,100.00
2022-09-05T06:31:30.342Z,100.00
2022-09-05T06:34:35.662Z,100.00
2022-09-05T06:37:08.282Z,100.00
2022-09-05T06:40:02.024Z,100.00
2022-09-05T06:42:55.004Z,100.00
2022-09-05T06:45:35.846Z,100.00
2022-09-05T06:48:11.149Z,100.00
2022-09-05T06:51:18.334Z,100.00
2022-09-05T06:54:10.939Z,100.00
2022-09-05T06:57:14.596Z,100.00
2022-09-05T07:00:18.194Z,100.00
2022-09-05T07:03:19.899Z,100.00
2022-09-05T07:06:09.173Z,100.00
2022-09-05T07:08:49.233Z,100.00
2022-09-05T07:11:21.332Z,100.00
2022-09-05T07:14:04.643Z,100.00
2022-09-05T07:16:51.793Z,100.00
2022-09-05T07:19:52.925Z,100.00
2022-09-05T07:22:48.001Z,100.00
2022-09-05T07:25:25.202Z,100.00
2022-09-05T07:28:29.428Z,100.00
2022-09-05T07:31:09.867Z,100.00
2022-09-05T07:33:41.004Z,100.00
2022-09-05T07:36:32.410Z,100.00
2022-09-05T07:39:27.831Z,100.00
2022-09-05T07:41:58.803Z,100.00
2022-09-05T07:44:47.973Z,100.00
2022-09-05T07:47:37.285Z,100.00
2022-09-05T07:50:54.604Z,100.00
2022-09-05T07:56:50.434Z,100.00
2022-09-05T07:56:50.755Z,100.00
2022-09-05T07:58:54.525Z,100.00
2022-09-05T08:01:24.263Z,100.00
2022-09-05T08:04:00.351Z,100.00
2022-09-05T08:07:47.820Z,100.00
2022-09-05T08:10:06.314Z,100.00
2022-09-05T08:13:00.612Z,100.00
2022-09-05T08:15:26.615Z,100.00
2022-09-05T08:18:42.507Z,100.00
2022-09-05T08:21:27.184Z,100.00
2022-09-05T08:24:13.698Z,100.00
2022-09-05T08:27:01.083Z,100.00
2022-09-05T08:29:42.973Z,100.00
2022-09-05T08:32:21.509Z,100.00
2022-09-05T08:34:53.399Z,100.00
2022-09-05T08:37:26.730Z,100.00
2022-09-05T08:40:10.491Z,100.00
2022-09-05T08:44:01.374Z,100.00
2022-09-05T08:46:42.292Z,100.00
2022-09-05T08:49:48.278Z,100.00
2022-09-05T08:52:52.403Z,100.00
2022-09-05T08:55:42.963Z,100.00
2022-09-05T08:58:29.028Z,100.00
2022-09-05T09:01:14.724Z,100.00
2022-09-05T09:04:06.212Z,100.00
2022-09-05T09:07:12.272Z,100.00
2022-09-05T09:10:05.536Z,100.00
2022-09-05T09:13:14.044Z,100.00
2022-09-05T09:16:07.812Z,100.00
2022-09-05T09:18:51.262Z,100.00
2022-09-05T09:21:38.551Z,100.00
2022-09-05T09:24:29.284Z,100.00
2022-09-05T09:27:03.817Z,100.00
2022-09-05T09:29:37.791Z,100.00
2022-09-05T09:32:16.903Z,100.00
2022-09-05T09:35:05.493Z,100.00
2022-09-05T09:37:59.586Z,100.00
2022-09-05T09:40:47.426Z,100.00
2022-09-05T09:43:53.126Z,100.00
2022-09-05T09:46:42.240Z,100.00
2022-09-05T09:49:38.990Z,100.00
2022-09-05T09:52:38.336Z,100.00
2022-09-05T09:55:44.521Z,100.00
2022-09-05T09:59:07.726Z,100.00
2022-09-05T10:02:12.873Z,100.00
2022-09-05T10:10:39.642Z,100.00
2022-09-05T10:10:51.121Z,100.00
2022-09-05T10:12:02.214Z,100.00
2022-09-05T10:14:53.447Z,100.00
2022-09-05T10:17:28.249Z,100.00
2022-09-05T10:20:45.281Z,100.00
2022-09-05T10:23:46.811Z,100.00
2022-09-05T10:26:38.113Z,100.00
2022-09-05T10:29:48.623Z,100.00
2022-09-05T10:35:07.537Z,100.00
2022-09-05T10:35:41.704Z,100.00
2022-09-05T10:38:12.721Z,100.00
2022-09-05T10:41:21.883Z,100.00
2022-09-05T10:43:50.359Z,100.00
2022-09-05T10:46:51.225Z,100.00
2022-09-05T10:49:30.350Z,100.00
2022-09-05T10:52:34.718Z,100.00
2022-09-05T10:55:18.531Z,100.00
2022-09-05T10:58:14.569Z,100.00
2022-09-05T11:02:24.379Z,100.00
2022-09-05T11:04:05.241Z,100.00
2022-09-05T11:06:56.878Z,100.00
2022-09-05T11:09:41.097Z,100.00
2022-09-05T11:12:57.749Z,100.00
2022-09-05T11:15:45.914Z,100.00
2022-09-05T11:18:55.498Z,100.00
2022-09-05T11:21:43.077Z,100.00
2022-09-05T11:24:32.787Z,100.00
2022-09-05T11:27:34.383Z,100.00
2022-09-05T11:30:07.025Z,100.00
2022-09-05T11:37:43.037Z,100.00
2022-09-05T11:39:57.412Z,100.00
2022-09-05T11:40:00.279Z,100.00
2022-09-05T11:42:12.940Z,100.00
2022-09-05T11:45:24.870Z,100.00
2022-09-05T11:48:14.304Z,100.00
2022-09-05T11:51:28.283Z,100.00
2022-09-05T11:54:27.514Z,100.00
2022-09-05T11:57:33.581Z,100.00
2022-09-05T12:00:34.435Z,100.00
2022-09-05T12:03:57.402Z,100.00
2022-09-05T12:06:31.220Z,100.00
2022-09-05T12:09:16.194Z,100.00
2022-09-05T12:12:41.462Z,100.00
2022-09-05T12:15:35.128Z,100.00
2022-09-05T12:18:24.336Z,100.00
2022-09-05T12:21:32.507Z,100.00
2022-09-05T12:25:24.769Z,100.00
2022-09-05T12:27:41.872Z,100.00
2022-09-05T12:30:28.726Z,100.00
2022-09-05T12:36:05.068Z,100.00
2022-09-05T12:40:54.352Z,100.00
2022-09-05T12:41:42.573Z,100.00
2022-09-05T12:43:33.446Z,100.00
2022-09-05T12:45:43.683Z,100.00
2022-09-05T12:48:26.261Z,100.00
2022-09-05T12:51:45.785Z,100.00
2022-09-05T12:54:34.850Z,100.00
2022-09-05T13:00:13.889Z,100.00
2022-09-05T13:03:02.402Z,100.00
2022-09-05T13:03:28.550Z,100.00
2022-09-05T13:06:21.460Z,100.00
2022-09-05T13:09:18.010Z,100.00
2022-09-05T13:14:53.613Z,100.00
2022-09-05T13:15:19.968Z,100.00
2022-09-05T13:17:54.882Z,100.00
2022-09-05T13:20:35.802Z,100.00
2022-09-05T13:23:25.456Z,100.00
2022-09-05T13:26:06.687Z,100.00
2022-09-05T13:29:10.657Z,100.00
2022-09-05T13:38:01.343Z,100.00
2022-09-05T13:38:16.290Z,100.00
2022-09-05T13:38:20.014Z,100.00
2022-09-05T13:41:01.065Z,100.00
2022-09-05T13:43:39.112Z,100.00
2022-09-05T13:46:14.496Z,100.00
2022-09-05T13:49:31.267Z,100.00
2022-09-05T13:52:32.472Z,100.00
2022-09-05T13:55:26.542Z,100.00
2022-09-05T13:58:08.507Z,100.00
2022-09-05T14:00:40.227Z,100.00
2022-09-05T14:06:45.927Z,100.00
2022-09-05T14:09:41.125Z,100.00
2022-09-05T14:12:24.331Z,100.00
2022-09-05T14:15:19.950Z,100.00
2022-09-05T14:18:00.361Z,100.00
2022-09-05T14:20:56.854Z,100.00
2022-09-05T14:23:31.870Z,100.00
2022-09-05T14:26:05.713Z,100.00
2022-09-05T14:28:41.725Z,100.00
2022-09-05T14:36:33.470Z,100.00
2022-09-05T14:37:45.593Z,100.00
2022-09-05T14:38:05.608Z,100.00
2022-09-05T14:41:07.117Z,100.00
2022-09-05T14:43:56.885Z,100.00
2022-09-05T14:47:03.194Z,100.00
2022-09-05T14:50:25.477Z,100.00
2022-09-05T14:57:06.833Z,100.00
2022-09-05T15:02:50.052Z,100.00
2022-09-05T15:02:54.723Z,100.00
2022-09-05T15:05:18.592Z,100.00
2022-09-05T15:07:58.667Z,100.00
2022-09-05T15:12:14.943Z,100.00
2022-09-05T15:13:25.867Z,100.00
2022-09-05T15:16:09.234Z,100.00
2022-09-05T15:18:44.006Z,100.00
2022-09-05T15:21:35.599Z,100.00
2022-09-05T15:24:25.359Z,100.00
2022-09-05T15:30:22.726Z,100.00
2022-09-05T15:33:31.648Z,100.00
2022-09-05T15:36:06.557Z,100.00
2022-09-05T15:38:54.971Z,100.00
2022-09-05T15:41:43.050Z,100.00
2022-09-05T15:44:34.071Z,100.00
2022-09-05T15:47:25.418Z,100.00
2022-09-05T15:49:59.112Z,100.00
2022-09-05T15:52:55.051Z,100.00
2022-09-05T15:55:27.796Z,100.00
2022-09-05T15:57:58.320Z,100.00
2022-09-05T16:00:51.506Z,100.00
2022-09-05T16:04:38.085Z,100.00
2022-09-05T16:10:33.767Z,100.00
2022-09-05T16:10:49.484Z,100.00
2022-09-05T16:12:17.039Z,100.00
2022-09-05T16:16:33.732Z,100.00
2022-09-05T16:23:12.993Z,100.00
2022-09-05T16:23:15.340Z,100.00
2022-09-05T16:23:51.092Z,100.00
2022-09-05T16:26:49.388Z,100.00
2022-09-05T16:29:32.170Z,100.00
2022-09-05T16:32:03.309Z,100.00
2022-09-05T16:34:51.070Z,100.00
2022-09-05T16:37:41.706Z,100.00
2022-09-05T16:40:38.190Z,100.00
2022-09-05T16:43:25.322Z,100.00
2022-09-05T16:46:12.903Z,100.00
2022-09-05T16:49:36.018Z,100.00
2022-09-05T16:52:16.599Z,100.00
2022-09-05T16:55:03.858Z,100.00
2022-09-05T16:57:36.861Z,100.00
2022-09-05T17:00:09.271Z,100.00
2022-09-05T17:02:51.153Z,100.00
2022-09-05T17:05:34.934Z,100.00
2022-09-05T17:08:21.930Z,100.00
2022-09-05T17:11:12.387Z,100.00
2022-09-05T17:14:08.333Z,100.00
2022-09-05T17:16:54.661Z,100.00
2022-09-05T17:19:56.822Z,100.00
2022-09-05T17:24:45.157Z,100.00
2022-09-05T17:29:24.830Z,100.00
2022-09-05T17:29:26.099Z,100.00
2022-09-05T17:31:54.308Z,100.00
2022-09-05T17:34:50.593Z,100.00
2022-09-05T17:37:40.531Z,100.00
2022-09-05T17:40:38.765Z,100.00
2022-09-05T17:43:28.688Z,100.00
2022-09-05T17:46:13.090Z,100.00
2022-09-05T17:48:57.291Z,100.00
2022-09-05T17:51:50.867Z,100.00
2022-09-05T17:54:30.560Z,100.00
2022-09-05T17:57:28.599Z,100.00
2022-09-05T18:00:05.749Z,100.00
2022-09-05T18:02:57.632Z,100.00
2022-09-05T18:05:59.597Z,100.00
2022-09-05T18:08:50.363Z,100.00
2022-09-05T18:11:29.055Z,100.00
2022-09-05T18:14:24.508Z,100.00
2022-09-05T18:17:37.178Z,100.00
2022-09-05T18:19:46.821Z,100.00
2022-09-05T18:22:31.910Z,100.00
2022-09-05T18:25:15.646Z,100.00
2022-09-05T18:30:39.818Z,100.00
2022-09-05T18:33:53.837Z,100.00
2022-09-05T18:36:25.959Z,100.00
2022-09-05T18:39:24.923Z,100.00
2022-09-05T18:42:26.497Z,100.00
2022-09-05T18:44:59.742Z,100.00
2022-09-05T18:47:51.297Z,100.00
2022-09-05T18:56:12.398Z,100.00
2022-09-05T18:58:31.014Z,100.00
2022-09-05T19:01:37.935Z,100.00
2022-09-05T19:04:17.603Z,100.00
2022-09-05T19:07:18.617Z,100.00
2022-09-05T19:10:35.592Z,100.00
2022-09-05T19:13:20.262Z,100.00
2022-09-05T19:16:42.173Z,100.00
2022-09-05T19:19:08.920Z,100.00
2022-09-05T19:23:01.059Z,100.00
2022-09-05T19:24:50.920Z,100.00
2022-09-05T19:28:20.657Z,100.00
2022-09-05T19:36:50.241Z,100.00
2022-09-05T19:37:04.964Z,100.00
2022-09-05T19:37:06.992Z,100.00
2022-09-05T19:42:29.843Z,100.00
2022-09-05T19:47:36.182Z,100.00
2022-09-05T19:47:38.174Z,100.00
2022-09-05T19:48:35.340Z,100.00
2022-09-05T19:51:19.235Z,100.00
2022-09-05T19:54:04.610Z,100.00
2022-09-05T19:56:48.159Z,100.00
2022-09-05T19:59:26.283Z,100.00
2022-09-05T20:01:55.617Z,100.00
2022-09-05T20:04:27.825Z,100.00
2022-09-05T20:06:57.144Z,100.00
2022-09-05T20:09:28.197Z,100.00
2022-09-05T20:12:00.024Z,100.00
2022-09-05T20:14:36.540Z,100.00
2022-09-05T20:17:29.667Z,100.00
2022-09-05T20:20:13.406Z,100.00
2022-09-05T20:22:48.013Z,100.00
2022-09-05T20:25:55.403Z,100.00
2022-09-05T20:28:36.573Z,100.00
2022-09-05T20:31:33.938Z,100.00
2022-09-05T20:35:06.334Z,100.00
2022-09-05T20:43:17.839Z,93.25
2022-09-05T20:43:17.938Z,100.00
2022-09-05T20:43:27.019Z,100.00
2022-09-05T20:48:48.983Z,99.74
2022-09-05T20:54:17.178Z,91.88
2022-09-05T20:54:19.065Z,98.22
2022-09-05T20:54:39.341Z,89.87
2022-09-05T20:57:19.963Z,98.84
2022-09-05T20:59:49.190Z,98.50
2022-09-05T21:02:28.412Z,85.16
2022-09-05T21:05:20.553Z,78.67
2022-09-05T21:08:01.096Z,82.01
2022-09-05T21:10:55.652Z,84.67
2022-09-05T21:13:37.471Z,85.00
2022-09-05T21:16:17.105Z,73.56
2022-09-05T21:18:46.473Z,80.15
2022-09-05T21:21:33.432Z,68.70
2022-09-05T21:24:16.099Z,67.41
2022-09-05T21:26:49.312Z,63.77
2022-09-05T21:29:32.705Z,59.99
2022-09-05T21:32:10.446Z,62.20
2022-09-05T21:34:53.734Z,60.05
2022-09-05T21:37:23.018Z,62.14
2022-09-05T21:39:58.882Z,64.77
2022-09-05T21:45:08.489Z,59.64
2022-09-05T21:47:46.668Z,56.71
2022-09-05T21:48:17.797Z,59.33
2022-09-05T21:50:50.471Z,56.88
2022-09-05T21:59:11.656Z,55.94
2022-09-05T21:59:16.404Z,55.72
2022-09-05T21:59:36.697Z,56.16
2022-09-05T22:02:09.161Z,52.69
2022-09-05T22:04:41.472Z,53.80
2022-09-05T22:07:21.755Z,54.36
2022-09-05T22:10:07.055Z,52.25
2022-09-05T22:12:39.657Z,52.76
2022-09-05T22:15:27.919Z,53.10
2022-09-05T22:18:27.427Z,55.00
2022-09-05T22:21:32.253Z,53.21
2022-09-05T22:23:45.694Z,50.34
2022-09-05T22:26:16.930Z,52.42
2022-09-05T22:28:52.593Z,52.48
2022-09-05T22:31:23.112Z,50.68
2022-09-05T22:33:52.275Z,50.89
2022-09-05T22:36:21.506Z,49.74
2022-09-05T22:38:50.613Z,51.23
2022-09-05T22:41:30.375Z,48.77
2022-09-05T22:44:00.301Z,49.52
2022-09-05T22:46:30.202Z,48.56
2022-09-05T22:48:59.358Z,49.40
2022-09-05T22:51:28.311Z,50.24
2022-09-05T22:53:57.555Z,48.78
2022-09-05T22:56:35.681Z,49.83
2022-09-05T22:59:07.999Z,48.25
2022-09-05T23:01:37.111Z,48.02
2022-09-05T23:04:06.317Z,50.47
2022-09-05T23:06:35.631Z,47.55
2022-09-05T23:09:05.299Z,47.86
2022-09-05T23:11:34.428Z,44.18
2022-09-05T23:14:03.871Z,45.35
2022-09-05T23:16:33.301Z,46.21
2022-09-05T23:19:02.435Z,45.64
2022-09-05T23:21:31.747Z,46.85
2022-09-05T23:24:00.736Z,45.77
2022-09-05T23:26:29.812Z,49.55
2022-09-05T23:28:58.978Z,48.74
2022-09-05T23:31:28.082Z,46.73
2022-09-05T23:33:59.053Z,44.97
2022-09-05T23:36:28.123Z,44.58
2022-09-05T23:38:57.192Z,46.34
2022-09-05T23:41:26.879Z,44.33
2022-09-05T23:43:56.240Z,46.14
2022-09-05T23:46:25.858Z,46.22
2022-09-05T23:48:55.408Z,47.08
2022-09-05T23:51:24.588Z,47.91
2022-09-05T23:53:53.828Z,48.24
2022-09-05T23:56:23.004Z,51.90
2022-09-05T23:58:52.534Z,49.64
